createdAt,value
2023-03-26T00:00:35.577Z,984.33
2023-03-26T00:01:35.583Z,984.21
2023-03-26T00:02:35.648Z,984.23
2023-03-26T00:03:35.557Z,984.17
2023-03-26T00:04:35.541Z,984.20
2023-03-26T00:05:35.595Z,983.99
2023-03-26T00:06:35.539Z,984.18
2023-03-26T00:07:35.524Z,984.06
2023-03-26T00:08:35.516Z,984.12
2023-03-26T00:09:35.511Z,984.02
2023-03-26T00:10:35.503Z,984.07
2023-03-26T00:11:35.511Z,984.04
2023-03-26T00:12:35.480Z,984.00
2023-03-26T00:13:36.504Z,984.10
2023-03-26T00:14:35.520Z,984.08
2023-03-26T00:15:35.477Z,984.12
2023-03-26T00:16:35.551Z,984.13
2023-03-26T00:17:35.473Z,984.13
2023-03-26T00:18:35.450Z,984.12
2023-03-26T00:19:35.440Z,984.14
2023-03-26T00:20:35.436Z,984.16
2023-03-26T00:21:35.509Z,984.10
2023-03-26T00:22:35.419Z,984.21
2023-03-26T00:23:35.430Z,984.21
2023-03-26T00:24:35.463Z,984.11
2023-03-26T00:25:35.399Z,984.24
2023-03-26T00:26:35.405Z,984.09
2023-03-26T00:27:35.394Z,984.18
2023-03-26T00:28:35.388Z,984.22
2023-03-26T00:29:35.412Z,984.21
2023-03-26T00:30:35.393Z,984.26
2023-03-26T00:31:35.390Z,984.35
2023-03-26T00:32:35.376Z,984.28
2023-03-26T00:33:35.356Z,984.29
2023-03-26T00:34:35.373Z,984.25
2023-03-26T00:35:35.376Z,984.26
2023-03-26T00:36:35.651Z,984.25
2023-03-26T00:37:35.335Z,984.31
2023-03-26T00:38:35.342Z,984.09
2023-03-26T00:39:35.319Z,984.04
2023-03-26T00:40:35.316Z,984.07
2023-03-26T00:41:35.341Z,984.17
2023-03-26T00:42:35.304Z,984.14
2023-03-26T00:43:35.323Z,984.22
2023-03-26T00:44:35.310Z,984.12
2023-03-26T00:45:35.282Z,984.20
2023-03-26T00:46:35.348Z,984.10
2023-03-26T00:47:35.277Z,984.21
2023-03-26T00:48:44.478Z,984.23
2023-03-26T00:49:37.266Z,984.32
2023-03-26T00:50:35.257Z,984.29
2023-03-26T00:51:35.255Z,984.32
2023-03-26T00:52:35.238Z,984.37
2023-03-26T00:53:35.230Z,984.34
2023-03-26T00:54:35.230Z,984.21
2023-03-26T00:55:35.222Z,984.23
2023-03-26T00:56:35.295Z,984.12
2023-03-26T00:57:36.128Z,984.16
2023-03-26T00:58:36.200Z,984.12
2023-03-26T00:59:35.198Z,984.12
2023-03-26T01:00:35.210Z,984.09
2023-03-26T01:01:35.212Z,984.12
2023-03-26T01:02:35.238Z,984.12
2023-03-26T01:03:35.297Z,984.17
2023-03-26T01:04:35.396Z,984.08
2023-03-26T01:05:35.159Z,984.17
2023-03-26T01:06:35.167Z,984.07
2023-03-26T01:07:35.171Z,984.14
2023-03-26T01:08:35.136Z,984.15
2023-03-26T01:09:35.133Z,984.10
2023-03-26T01:10:35.126Z,984.16
2023-03-26T01:11:35.135Z,984.14
2023-03-26T01:12:35.133Z,984.11
2023-03-26T01:13:35.111Z,984.09
2023-03-26T01:14:35.104Z,984.07
2023-03-26T01:15:35.123Z,984.08
2023-03-26T01:16:35.090Z,984.18
2023-03-26T01:17:35.116Z,984.05
2023-03-26T01:18:35.085Z,984.07
2023-03-26T01:19:35.071Z,984.04
2023-03-26T01:20:35.094Z,984.15
2023-03-26T01:21:35.059Z,984.05
2023-03-26T01:22:35.060Z,984.16
2023-03-26T01:23:35.063Z,984.16
2023-03-26T01:24:35.046Z,984.10
2023-03-26T01:25:35.053Z,984.10
2023-03-26T01:26:35.047Z,984.02
2023-03-26T01:27:35.022Z,984.04
2023-03-26T01:28:35.030Z,983.98
2023-03-26T01:29:35.042Z,984.07
2023-03-26T01:30:35.017Z,984.12
2023-03-26T01:31:35.025Z,984.09
2023-03-26T01:32:35.107Z,984.08
2023-03-26T01:33:35.073Z,984.12
2023-03-26T01:34:35.053Z,984.20
2023-03-26T01:35:34.993Z,984.27
2023-03-26T01:36:34.997Z,984.22
2023-03-26T01:37:34.965Z,984.28
2023-03-26T01:38:34.978Z,984.19
2023-03-26T01:39:34.951Z,984.33
2023-03-26T01:40:34.939Z,984.16
2023-03-26T01:41:34.944Z,984.23
2023-03-26T01:42:34.924Z,984.22
2023-03-26T01:43:34.920Z,984.13
2023-03-26T01:44:34.937Z,984.20
2023-03-26T01:45:34.909Z,984.14
2023-03-26T01:46:34.992Z,984.21
2023-03-26T01:47:34.954Z,984.18
2023-03-26T01:48:34.891Z,984.21
2023-03-26T01:49:34.928Z,984.30
2023-03-26T01:50:34.871Z,984.27
2023-03-26T01:51:34.864Z,984.25
2023-03-26T01:52:34.873Z,984.30
2023-03-26T01:53:34.861Z,984.27
2023-03-26T01:54:34.863Z,984.26
2023-03-26T01:55:34.930Z,984.28
2023-03-26T01:56:34.860Z,984.24
2023-03-26T01:57:34.839Z,984.27
2023-03-26T01:58:34.830Z,984.24
2023-03-26T01:59:34.851Z,984.23
2023-03-26T02:00:34.827Z,984.25
2023-03-26T02:01:34.888Z,984.22
2023-03-26T02:02:34.949Z,984.20
2023-03-26T02:03:34.833Z,984.26
2023-03-26T02:04:34.808Z,984.20
2023-03-26T02:05:34.788Z,984.31
2023-03-26T02:06:34.768Z,984.26
2023-03-26T02:07:34.789Z,984.26
2023-03-26T02:08:34.754Z,984.24
2023-03-26T02:09:34.749Z,984.24
2023-03-26T02:10:34.767Z,984.20
2023-03-26T02:11:35.951Z,984.17
2023-03-26T02:12:35.738Z,984.17
2023-03-26T02:13:34.737Z,984.21
2023-03-26T02:14:34.724Z,984.20
2023-03-26T02:15:34.736Z,984.20
2023-03-26T02:16:34.752Z,984.21
2023-03-26T02:17:34.740Z,984.18
2023-03-26T02:18:34.688Z,984.14
2023-03-26T02:19:34.689Z,984.17
2023-03-26T02:20:34.699Z,984.15
2023-03-26T02:21:34.685Z,984.13
2023-03-26T02:22:34.659Z,984.21
2023-03-26T02:23:34.699Z,984.13
2023-03-26T02:24:34.668Z,984.11
2023-03-26T02:25:34.657Z,984.12
2023-03-26T02:26:34.671Z,984.05
2023-03-26T02:27:34.633Z,984.06
2023-03-26T02:28:34.653Z,984.01
2023-03-26T02:29:34.627Z,984.03
2023-03-26T02:30:35.618Z,984.07
2023-03-26T02:31:34.700Z,984.04
2023-03-26T02:32:34.624Z,984.04
2023-03-26T02:33:34.609Z,983.96
2023-03-26T02:34:34.600Z,983.95
2023-03-26T02:35:34.694Z,983.95
2023-03-26T02:36:34.628Z,983.91
2023-03-26T02:37:34.597Z,983.92
2023-03-26T02:38:34.578Z,983.89
2023-03-26T02:39:34.569Z,983.94
2023-03-26T02:40:34.553Z,983.86
2023-03-26T02:41:34.559Z,983.89
2023-03-26T02:42:34.558Z,983.80
2023-03-26T02:43:34.546Z,983.81
2023-03-26T02:44:34.530Z,983.79
2023-03-26T02:45:34.569Z,983.85
2023-03-26T02:46:34.524Z,983.81
2023-03-26T02:47:34.516Z,983.77
2023-03-26T02:48:34.514Z,983.79
2023-03-26T02:49:34.496Z,983.79
2023-03-26T02:50:34.485Z,983.81
2023-03-26T02:51:34.495Z,983.85
2023-03-26T02:52:34.467Z,983.79
2023-03-26T02:53:34.496Z,983.80
2023-03-26T02:54:34.471Z,983.87
2023-03-26T02:55:34.449Z,983.82
2023-03-26T02:56:34.490Z,983.78
2023-03-26T02:57:34.442Z,983.84
2023-03-26T02:58:34.438Z,983.85
2023-03-26T02:59:34.432Z,983.77
2023-03-26T03:00:34.431Z,983.80
2023-03-26T03:01:34.446Z,983.74
2023-03-26T03:02:34.601Z,983.73
2023-03-26T03:03:34.452Z,983.80
2023-03-26T03:04:34.396Z,983.72
2023-03-26T03:05:34.410Z,983.79
2023-03-26T03:06:34.389Z,983.77
2023-03-26T03:07:34.384Z,983.75
2023-03-26T03:08:34.387Z,983.75
2023-03-26T03:09:34.363Z,983.82
2023-03-26T03:10:34.348Z,983.75
2023-03-26T03:11:34.363Z,983.73
2023-03-26T03:12:34.332Z,983.74
2023-03-26T03:13:34.348Z,983.72
2023-03-26T03:14:34.327Z,983.73
2023-03-26T03:15:34.319Z,983.77
2023-03-26T03:16:34.351Z,983.76
2023-03-26T03:17:34.363Z,983.77
2023-03-26T03:18:34.307Z,983.76
2023-03-26T03:19:34.307Z,983.81
2023-03-26T03:20:34.280Z,983.78
2023-03-26T03:21:34.271Z,983.75
2023-03-26T03:22:34.279Z,983.75
2023-03-26T03:23:34.292Z,983.77
2023-03-26T03:24:34.280Z,983.73
2023-03-26T03:25:34.257Z,983.72
2023-03-26T03:26:34.262Z,983.74
2023-03-26T03:27:34.246Z,983.73
2023-03-26T03:28:34.246Z,983.70
2023-03-26T03:29:34.232Z,983.74
2023-03-26T03:30:34.224Z,983.69
2023-03-26T03:31:34.218Z,983.67
2023-03-26T03:32:34.235Z,983.64
2023-03-26T03:33:34.200Z,983.68
2023-03-26T03:34:34.218Z,983.62
2023-03-26T03:35:34.202Z,983.65
2023-03-26T03:36:34.180Z,983.58
2023-03-26T03:37:34.169Z,983.63
2023-03-26T03:38:34.171Z,983.59
2023-03-26T03:39:34.179Z,983.60
2023-03-26T03:40:34.165Z,983.57
2023-03-26T03:41:34.180Z,983.60
2023-03-26T03:42:34.143Z,983.54
2023-03-26T03:43:34.127Z,983.54
2023-03-26T03:44:34.128Z,983.57
2023-03-26T03:45:34.119Z,983.55
2023-03-26T03:46:35.185Z,983.51
2023-03-26T03:47:34.167Z,983.59
2023-03-26T03:48:34.097Z,983.52
2023-03-26T03:49:34.091Z,983.42
2023-03-26T03:50:35.832Z,983.47
2023-03-26T03:51:35.105Z,983.44
2023-03-26T03:52:34.089Z,983.44
2023-03-26T03:53:34.069Z,983.47
2023-03-26T03:54:34.073Z,983.37
2023-03-26T03:55:34.051Z,983.36
2023-03-26T03:56:34.111Z,983.48
2023-03-26T03:57:34.043Z,983.36
2023-03-26T03:58:34.043Z,983.34
2023-03-26T03:59:34.040Z,983.33
2023-03-26T04:00:34.021Z,983.30
2023-03-26T04:01:34.014Z,983.36
2023-03-26T04:02:34.097Z,983.30
2023-03-26T04:03:34.624Z,983.32
2023-03-26T04:04:34.035Z,983.32
2023-03-26T04:05:33.987Z,983.19
2023-03-26T04:06:34.018Z,983.28
2023-03-26T04:07:33.999Z,983.23
2023-03-26T04:08:33.974Z,983.30
2023-03-26T04:09:33.964Z,983.23
2023-03-26T04:10:33.965Z,983.22
2023-03-26T04:11:33.995Z,983.23
2023-03-26T04:12:33.959Z,983.26
2023-03-26T04:13:33.935Z,983.23
2023-03-26T04:14:33.965Z,983.19
2023-03-26T04:15:33.926Z,983.19
2023-03-26T04:16:34.965Z,983.14
2023-03-26T04:17:33.960Z,983.12
2023-03-26T04:18:33.928Z,983.06
2023-03-26T04:19:33.911Z,983.07
2023-03-26T04:20:33.893Z,983.03
2023-03-26T04:21:33.911Z,983.05
2023-03-26T04:22:33.884Z,982.98
2023-03-26T04:23:33.881Z,982.98
2023-03-26T04:24:33.874Z,982.94
2023-03-26T04:25:33.882Z,982.93
2023-03-26T04:26:33.858Z,982.90
2023-03-26T04:27:33.848Z,982.87
2023-03-26T04:28:33.857Z,982.81
2023-03-26T04:29:33.841Z,982.83
2023-03-26T04:30:33.888Z,982.85
2023-03-26T04:31:33.860Z,982.84
2023-03-26T04:32:33.847Z,982.77
2023-03-26T04:33:33.816Z,982.78
2023-03-26T04:34:33.802Z,982.80
2023-03-26T04:35:33.871Z,982.83
2023-03-26T04:36:33.789Z,982.79
2023-03-26T04:37:33.787Z,982.78
2023-03-26T04:38:33.793Z,982.74
2023-03-26T04:39:33.775Z,982.77
2023-03-26T04:40:33.776Z,982.74
2023-03-26T04:41:33.790Z,982.77
2023-03-26T04:42:33.757Z,982.77
2023-03-26T04:43:33.750Z,982.77
2023-03-26T04:44:33.735Z,982.77
2023-03-26T04:45:33.749Z,982.75
2023-03-26T04:46:33.914Z,982.68
2023-03-26T04:47:34.739Z,982.75
2023-03-26T04:48:33.722Z,982.70
2023-03-26T04:49:33.778Z,982.72
2023-03-26T04:50:33.700Z,982.70
2023-03-26T04:51:33.701Z,982.63
2023-03-26T04:52:33.686Z,982.68
2023-03-26T04:53:33.689Z,982.69
2023-03-26T04:54:33.674Z,982.65
2023-03-26T04:55:33.671Z,982.69
2023-03-26T04:56:33.703Z,982.63
2023-03-26T04:57:33.657Z,982.71
2023-03-26T04:58:33.652Z,982.66
2023-03-26T04:59:33.652Z,982.68
2023-03-26T05:00:33.628Z,982.61
2023-03-26T05:01:33.707Z,982.74
2023-03-26T05:02:33.682Z,982.65
2023-03-26T05:03:33.616Z,982.60
2023-03-26T05:04:33.620Z,982.55
2023-03-26T05:05:33.603Z,982.63
2023-03-26T05:06:33.607Z,982.67
2023-03-26T05:07:33.604Z,982.61
2023-03-26T05:08:33.578Z,982.65
2023-03-26T05:09:34.595Z,982.58
2023-03-26T05:10:33.567Z,982.53
2023-03-26T05:11:33.556Z,982.51
2023-03-26T05:12:33.572Z,982.48
2023-03-26T05:13:33.544Z,982.49
2023-03-26T05:14:33.550Z,982.45
2023-03-26T05:15:33.540Z,982.48
2023-03-26T05:16:33.534Z,982.45
2023-03-26T05:17:33.542Z,982.43
2023-03-26T05:18:33.548Z,982.35
2023-03-26T05:19:33.534Z,982.43
2023-03-26T05:20:33.498Z,982.36
2023-03-26T05:21:33.493Z,982.40
2023-03-26T05:22:33.990Z,982.39
2023-03-26T05:23:33.480Z,982.31
2023-03-26T05:24:33.484Z,982.34
2023-03-26T05:25:33.477Z,982.33
2023-03-26T05:26:33.462Z,982.33
2023-03-26T05:27:33.449Z,982.29
2023-03-26T05:28:33.451Z,982.25
2023-03-26T05:29:33.438Z,982.27
2023-03-26T05:30:33.445Z,982.30
2023-03-26T05:31:33.438Z,982.34
2023-03-26T05:32:33.471Z,982.34
2023-03-26T05:33:33.477Z,982.35
2023-03-26T05:34:33.411Z,982.32
2023-03-26T05:35:33.461Z,982.32
2023-03-26T05:36:33.395Z,982.29
2023-03-26T05:37:33.423Z,982.27
2023-03-26T05:38:33.386Z,982.28
2023-03-26T05:39:33.371Z,982.28
2023-03-26T05:40:33.371Z,982.27
2023-03-26T05:41:33.367Z,982.23
2023-03-26T05:42:33.356Z,982.21
2023-03-26T05:43:33.342Z,982.23
2023-03-26T05:44:33.346Z,982.23
2023-03-26T05:45:33.362Z,982.22
2023-03-26T05:46:33.368Z,982.20
2023-03-26T05:47:33.354Z,982.17
2023-03-26T05:48:33.323Z,982.22
2023-03-26T05:49:33.329Z,982.10
2023-03-26T05:50:33.301Z,982.17
2023-03-26T05:51:33.305Z,982.12
2023-03-26T05:52:33.291Z,982.09
2023-03-26T05:53:33.289Z,982.06
2023-03-26T05:54:33.278Z,982.08
2023-03-26T05:55:33.276Z,982.04
2023-03-26T05:56:33.303Z,981.97
2023-03-26T05:57:33.266Z,982.00
2023-03-26T05:58:33.247Z,982.04
2023-03-26T05:59:33.236Z,982.07
2023-03-26T06:00:33.253Z,982.03
2023-03-26T06:01:33.239Z,981.95
2023-03-26T06:02:33.224Z,981.95
2023-03-26T06:03:33.326Z,981.96
2023-03-26T06:04:33.311Z,981.94
2023-03-26T06:05:33.204Z,981.95
2023-03-26T06:06:33.376Z,981.90
2023-03-26T06:07:34.180Z,981.92
2023-03-26T06:08:33.195Z,981.92
2023-03-26T06:09:33.179Z,981.84
2023-03-26T06:10:33.163Z,981.89
2023-03-26T06:11:33.206Z,981.88
2023-03-26T06:12:33.151Z,981.91
2023-03-26T06:13:33.142Z,981.91
2023-03-26T06:14:33.138Z,981.88
2023-03-26T06:15:33.184Z,981.82
2023-03-26T06:16:33.180Z,981.83
2023-03-26T06:17:33.161Z,981.81
2023-03-26T06:18:33.157Z,981.89
2023-03-26T06:19:33.110Z,981.92
2023-03-26T06:20:33.094Z,981.89
2023-03-26T06:21:33.093Z,981.86
2023-03-26T06:22:33.094Z,981.84
2023-03-26T06:23:33.084Z,981.73
2023-03-26T06:24:33.098Z,981.78
2023-03-26T06:25:33.067Z,981.74
2023-03-26T06:26:33.069Z,981.74
2023-03-26T06:27:33.052Z,981.71
2023-03-26T06:28:33.052Z,981.70
2023-03-26T06:29:33.059Z,981.69
2023-03-26T06:30:33.038Z,981.73
2023-03-26T06:31:33.073Z,981.67
2023-03-26T06:32:33.033Z,981.59
2023-03-26T06:33:33.028Z,981.67
2023-03-26T06:34:33.004Z,981.60
2023-03-26T06:35:33.061Z,981.64
2023-03-26T06:36:33.002Z,981.56
2023-03-26T06:37:32.993Z,981.59
2023-03-26T06:38:32.995Z,981.62
2023-03-26T06:39:32.988Z,981.61
2023-03-26T06:40:32.984Z,981.59
2023-03-26T06:41:32.969Z,981.61
2023-03-26T06:43:08.956Z,981.60
2023-03-26T06:43:34.112Z,981.59
2023-03-26T06:44:32.948Z,981.60
2023-03-26T06:45:32.944Z,981.63
2023-03-26T06:46:32.988Z,981.66
2023-03-26T06:47:32.962Z,981.63
2023-03-26T06:48:33.053Z,981.61
2023-03-26T06:49:32.906Z,981.56
2023-03-26T06:50:32.959Z,981.52
2023-03-26T06:51:32.936Z,981.48
2023-03-26T06:52:32.901Z,981.47
2023-03-26T06:53:32.875Z,981.45
2023-03-26T06:54:32.882Z,981.46
2023-03-26T06:55:32.859Z,981.43
2023-03-26T06:56:32.882Z,981.38
2023-03-26T06:57:32.887Z,981.39
2023-03-26T06:58:32.840Z,981.37
2023-03-26T06:59:32.840Z,981.33
2023-03-26T07:00:32.836Z,981.31
2023-03-26T07:01:32.878Z,981.39
2023-03-26T07:02:32.893Z,981.37
2023-03-26T07:03:32.931Z,981.43
2023-03-26T07:04:32.808Z,981.29
2023-03-26T07:05:32.823Z,981.20
2023-03-26T07:06:32.814Z,981.17
2023-03-26T07:07:32.818Z,981.21
2023-03-26T07:08:32.822Z,981.23
2023-03-26T07:09:32.789Z,981.25
2023-03-26T07:10:32.786Z,981.17
2023-03-26T07:11:32.771Z,981.20
2023-03-26T07:12:32.772Z,981.14
2023-03-26T07:13:32.767Z,981.24
2023-03-26T07:14:32.755Z,981.37
2023-03-26T07:15:32.735Z,981.25
2023-03-26T07:16:32.806Z,981.25
2023-03-26T07:17:32.748Z,981.18
2023-03-26T07:18:32.743Z,981.20
2023-03-26T07:19:32.724Z,981.24
2023-03-26T07:20:32.715Z,981.22
2023-03-26T07:21:32.705Z,981.19
2023-03-26T07:22:32.724Z,981.15
2023-03-26T07:23:32.694Z,981.18
2023-03-26T07:24:32.758Z,981.17
2023-03-26T07:25:32.684Z,981.11
2023-03-26T07:26:32.696Z,981.19
2023-03-26T07:27:32.680Z,981.08
2023-03-26T07:28:32.686Z,981.07
2023-03-26T07:29:32.660Z,981.07
2023-03-26T07:30:32.652Z,981.16
2023-03-26T07:31:32.699Z,981.08
2023-03-26T07:32:32.675Z,981.01
2023-03-26T07:33:32.656Z,981.05
2023-03-26T07:34:32.633Z,980.96
2023-03-26T07:35:32.724Z,980.94
2023-03-26T07:36:32.613Z,981.00
2023-03-26T07:37:32.601Z,980.94
2023-03-26T07:38:32.627Z,981.01
2023-03-26T07:39:32.587Z,981.01
2023-03-26T07:40:33.584Z,980.96
2023-03-26T07:41:32.572Z,980.98
2023-03-26T07:42:32.578Z,980.95
2023-03-26T07:43:32.583Z,980.95
2023-03-26T07:44:34.651Z,981.04
2023-03-26T07:45:32.590Z,981.02
2023-03-26T07:46:32.559Z,981.03
2023-03-26T07:47:32.629Z,981.09
2023-03-26T07:48:32.533Z,981.11
2023-03-26T07:49:32.571Z,981.11
2023-03-26T07:50:32.521Z,981.05
2023-03-26T07:51:32.538Z,981.07
2023-03-26T07:52:32.510Z,981.09
2023-03-26T07:53:32.508Z,981.02
2023-03-26T07:54:32.528Z,981.02
2023-03-26T07:55:32.498Z,981.04
2023-03-26T07:56:32.623Z,981.06
2023-03-26T07:57:32.548Z,981.05
2023-03-26T07:58:32.471Z,980.99
2023-03-26T07:59:32.460Z,980.99
2023-03-26T08:00:32.481Z,981.01
2023-03-26T08:01:32.456Z,980.94
2023-03-26T08:02:32.534Z,980.93
2023-03-26T08:03:32.594Z,980.93
2023-03-26T08:04:32.495Z,980.96
2023-03-26T08:05:32.427Z,980.96
2023-03-26T08:06:32.445Z,980.94
2023-03-26T08:07:32.409Z,980.99
2023-03-26T08:08:32.425Z,980.99
2023-03-26T08:09:32.396Z,980.94
2023-03-26T08:10:32.448Z,980.95
2023-03-26T08:11:32.412Z,981.03
2023-03-26T08:12:32.399Z,980.89
2023-03-26T08:13:32.376Z,980.87
2023-03-26T08:14:32.365Z,980.85
2023-03-26T08:15:32.384Z,980.84
2023-03-26T08:16:32.365Z,980.83
2023-03-26T08:17:32.414Z,980.80
2023-03-26T08:18:32.345Z,980.79
2023-03-26T08:19:32.334Z,980.73
2023-03-26T08:20:32.315Z,980.78
2023-03-26T08:21:32.314Z,980.76
2023-03-26T08:22:32.335Z,980.70
2023-03-26T08:23:32.311Z,980.76
2023-03-26T08:24:32.308Z,980.76
2023-03-26T08:25:32.290Z,980.65
2023-03-26T08:26:32.298Z,980.69
2023-03-26T08:27:32.275Z,980.70
2023-03-26T08:28:32.281Z,980.61
2023-03-26T08:29:32.253Z,980.66
2023-03-26T08:30:32.258Z,980.66
2023-03-26T08:31:32.304Z,980.64
2023-03-26T08:32:32.281Z,980.61
2023-03-26T08:33:32.250Z,980.61
2023-03-26T08:34:32.278Z,980.60
2023-03-26T08:35:32.283Z,980.62
2023-03-26T08:36:32.218Z,980.63
2023-03-26T08:37:32.228Z,980.65
2023-03-26T08:38:32.199Z,980.60
2023-03-26T08:39:32.228Z,980.61
2023-03-26T08:40:32.193Z,980.60
2023-03-26T08:41:32.201Z,980.60
2023-03-26T08:42:32.172Z,980.57
2023-03-26T08:43:32.170Z,980.59
2023-03-26T08:44:32.196Z,980.55
2023-03-26T08:45:32.150Z,980.60
2023-03-26T08:46:32.245Z,980.56
2023-03-26T08:47:32.163Z,980.56
2023-03-26T08:48:32.122Z,980.59
2023-03-26T08:49:32.118Z,980.51
2023-03-26T08:50:32.135Z,980.61
2023-03-26T08:51:32.130Z,980.59
2023-03-26T08:52:32.115Z,980.52
2023-03-26T08:53:32.127Z,980.58
2023-03-26T08:54:32.100Z,980.46
2023-03-26T08:55:32.110Z,980.52
2023-03-26T08:56:32.142Z,980.53
2023-03-26T08:57:32.079Z,980.50
2023-03-26T08:58:32.098Z,980.44
2023-03-26T08:59:32.059Z,980.39
2023-03-26T09:00:32.049Z,980.41
2023-03-26T09:01:32.075Z,980.46
2023-03-26T09:02:32.079Z,980.48
2023-03-26T09:03:32.151Z,980.42
2023-03-26T09:04:32.029Z,980.42
2023-03-26T09:05:32.022Z,980.43
2023-03-26T09:06:32.008Z,980.38
2023-03-26T09:07:32.025Z,980.39
2023-03-26T09:08:31.994Z,980.36
2023-03-26T09:09:31.993Z,980.34
2023-03-26T09:10:31.982Z,980.35
2023-03-26T09:11:31.983Z,980.31
2023-03-26T09:12:31.980Z,980.34
2023-03-26T09:13:31.966Z,980.32
2023-03-26T09:14:31.972Z,980.35
2023-03-26T09:15:31.958Z,980.37
2023-03-26T09:16:31.984Z,980.30
2023-03-26T09:17:31.977Z,980.37
2023-03-26T09:18:31.950Z,980.26
2023-03-26T09:19:32.942Z,980.30
2023-03-26T09:20:31.912Z,980.31
2023-03-26T09:21:31.918Z,980.33
2023-03-26T09:22:31.910Z,980.30
2023-03-26T09:23:31.945Z,980.26
2023-03-26T09:24:31.902Z,980.26
2023-03-26T09:25:31.909Z,980.25
2023-03-26T09:26:31.906Z,980.24
2023-03-26T09:27:31.876Z,980.24
2023-03-26T09:28:31.867Z,980.26
2023-03-26T09:29:33.122Z,980.26
2023-03-26T09:30:32.883Z,980.25
2023-03-26T09:31:31.903Z,980.18
2023-03-26T09:32:31.860Z,980.27
2023-03-26T09:33:31.862Z,980.18
2023-03-26T09:34:31.848Z,980.17
2023-03-26T09:35:31.868Z,980.17
2023-03-26T09:36:31.812Z,980.16
2023-03-26T09:37:31.844Z,980.18
2023-03-26T09:38:31.865Z,980.16
2023-03-26T09:39:31.809Z,980.08
2023-03-26T09:40:31.790Z,980.14
2023-03-26T09:41:31.790Z,980.07
2023-03-26T09:42:31.803Z,980.13
2023-03-26T09:43:31.804Z,980.13
2023-03-26T09:44:31.772Z,980.13
2023-03-26T09:45:31.846Z,980.08
2023-03-26T09:46:31.780Z,980.17
2023-03-26T09:47:31.785Z,980.16
2023-03-26T09:48:31.740Z,980.12
2023-03-26T09:49:31.741Z,980.10
2023-03-26T09:50:31.762Z,980.13
2023-03-26T09:51:31.752Z,980.09
2023-03-26T09:52:31.773Z,980.12
2023-03-26T09:53:31.711Z,980.07
2023-03-26T09:54:31.709Z,980.09
2023-03-26T09:55:31.711Z,980.03
2023-03-26T09:56:31.708Z,980.08
2023-03-26T09:57:31.738Z,980.07
2023-03-26T09:58:31.687Z,980.06
2023-03-26T09:59:31.680Z,980.13
2023-03-26T10:00:31.663Z,980.02
2023-03-26T10:01:31.727Z,980.01
2023-03-26T10:02:46.763Z,979.98
2023-03-26T10:03:32.699Z,980.01
2023-03-26T10:04:31.681Z,980.00
2023-03-26T10:05:31.658Z,980.01
2023-03-26T10:06:31.638Z,980.03
2023-03-26T10:07:31.601Z,979.97
2023-03-26T10:08:32.459Z,979.96
2023-03-26T10:09:32.595Z,979.96
2023-03-26T10:10:31.599Z,979.96
2023-03-26T10:11:31.582Z,979.96
2023-03-26T10:12:31.594Z,979.95
2023-03-26T10:13:31.615Z,979.94
2023-03-26T10:14:31.566Z,979.99
2023-03-26T10:15:31.562Z,979.93
2023-03-26T10:16:31.600Z,979.89
2023-03-26T10:17:31.571Z,979.84
2023-03-26T10:18:31.632Z,979.89
2023-03-26T10:19:31.534Z,979.86
2023-03-26T10:20:31.534Z,979.92
2023-03-26T10:21:31.520Z,979.86
2023-03-26T10:22:32.515Z,979.85
2023-03-26T10:23:31.529Z,979.88
2023-03-26T10:24:31.513Z,979.96
2023-03-26T10:25:31.502Z,979.97
2023-03-26T10:26:31.490Z,979.98
2023-03-26T10:27:31.478Z,979.93
2023-03-26T10:28:31.470Z,979.92
2023-03-26T10:29:31.478Z,979.90
2023-03-26T10:30:31.487Z,979.90
2023-03-26T10:31:31.456Z,979.93
2023-03-26T10:32:31.506Z,979.80
2023-03-26T10:33:31.440Z,979.88
2023-03-26T10:34:31.457Z,979.89
2023-03-26T10:35:31.445Z,979.82
2023-03-26T10:36:31.450Z,979.86
2023-03-26T10:37:31.411Z,979.85
2023-03-26T10:38:31.406Z,979.86
2023-03-26T10:39:36.624Z,979.86
2023-03-26T10:40:32.398Z,979.85
2023-03-26T10:41:31.404Z,979.85
2023-03-26T10:42:31.396Z,979.80
2023-03-26T10:43:31.370Z,979.75
2023-03-26T10:44:31.358Z,979.82
2023-03-26T10:45:31.354Z,979.74
2023-03-26T10:46:31.382Z,979.81
2023-03-26T10:47:31.387Z,979.71
2023-03-26T10:48:31.335Z,979.77
2023-03-26T10:49:31.340Z,979.74
2023-03-26T10:50:31.339Z,979.75
2023-03-26T10:51:31.330Z,979.78
2023-03-26T10:52:31.321Z,979.71
2023-03-26T10:53:31.300Z,979.79
2023-03-26T10:54:31.337Z,979.79
2023-03-26T10:55:31.297Z,979.77
2023-03-26T10:56:31.327Z,979.76
2023-03-26T10:57:31.309Z,979.76
2023-03-26T10:58:49.271Z,979.71
2023-03-26T10:59:32.279Z,979.76
2023-03-26T11:00:31.268Z,979.74
2023-03-26T11:01:31.305Z,979.71
2023-03-26T11:02:31.272Z,979.67
2023-03-26T11:03:31.239Z,979.66
2023-03-26T11:04:31.256Z,979.69
2023-03-26T11:05:31.269Z,979.70
2023-03-26T11:06:31.227Z,979.67
2023-03-26T11:07:31.238Z,979.66
2023-03-26T11:08:32.938Z,979.73
2023-03-26T11:09:31.202Z,979.69
2023-03-26T11:10:31.245Z,979.74
2023-03-26T11:11:31.200Z,979.69
2023-03-26T11:12:31.195Z,979.70
2023-03-26T11:13:31.174Z,979.70
2023-03-26T11:14:34.769Z,979.75
2023-03-26T11:15:32.201Z,979.78
2023-03-26T11:16:31.159Z,979.77
2023-03-26T11:17:40.884Z,979.80
2023-03-26T11:18:32.140Z,979.77
2023-03-26T11:19:31.148Z,979.75
2023-03-26T11:20:31.141Z,979.87
2023-03-26T11:21:31.119Z,979.79
2023-03-26T11:22:31.121Z,979.78
2023-03-26T11:23:31.109Z,979.85
2023-03-26T11:24:31.108Z,979.85
2023-03-26T11:25:31.114Z,979.78
2023-03-26T11:26:31.096Z,979.83
2023-03-26T11:27:31.089Z,979.87
2023-03-26T11:28:31.086Z,979.82
2023-03-26T11:29:33.276Z,979.88
2023-03-26T11:30:31.070Z,979.81
2023-03-26T11:31:31.137Z,979.78
2023-03-26T11:32:31.079Z,979.77
2023-03-26T11:33:32.780Z,979.76
2023-03-26T11:34:31.045Z,979.73
2023-03-26T11:35:40.181Z,979.78
2023-03-26T11:36:32.031Z,979.74
2023-03-26T11:37:31.027Z,979.69
2023-03-26T11:38:31.006Z,979.71
2023-03-26T11:39:31.008Z,979.73
2023-03-26T11:40:32.007Z,979.72
2023-03-26T11:41:30.989Z,979.67
2023-03-26T11:42:30.979Z,979.71
2023-03-26T11:43:30.977Z,979.73
2023-03-26T11:44:30.984Z,979.73
2023-03-26T11:45:30.980Z,979.77
2023-03-26T11:46:33.120Z,979.70
2023-03-26T11:47:31.063Z,979.77
2023-03-26T11:48:30.944Z,979.73
2023-03-26T11:49:30.936Z,979.74
2023-03-26T11:50:30.937Z,979.71
2023-03-26T11:51:30.927Z,979.82
2023-03-26T11:52:30.928Z,979.76
2023-03-26T11:53:30.908Z,979.86
2023-03-26T11:54:30.898Z,979.81
2023-03-26T11:55:31.934Z,979.89
2023-03-26T11:56:30.928Z,979.80
2023-03-26T11:57:30.948Z,979.85
2023-03-26T11:58:30.877Z,979.88
2023-03-26T11:59:30.862Z,979.99
2023-03-26T12:00:30.882Z,979.85
2023-03-26T12:01:30.849Z,979.90
2023-03-26T12:02:30.925Z,979.82
2023-03-26T12:03:30.840Z,979.81
2023-03-26T12:04:31.947Z,979.94
2023-03-26T12:05:30.836Z,979.80
2023-03-26T12:06:30.814Z,979.78
2023-03-26T12:07:30.829Z,979.89
2023-03-26T12:08:30.802Z,979.76
2023-03-26T12:09:30.798Z,979.84
2023-03-26T12:10:30.787Z,979.80
2023-03-26T12:11:31.753Z,979.77
2023-03-26T12:12:30.775Z,979.75
2023-03-26T12:13:30.760Z,979.78
2023-03-26T12:14:30.775Z,979.82
2023-03-26T12:15:30.771Z,979.77
2023-03-26T12:16:30.786Z,979.73
2023-03-26T12:17:31.746Z,979.71
2023-03-26T12:18:30.743Z,979.76
2023-03-26T12:19:30.723Z,979.66
2023-03-26T12:20:30.725Z,979.60
2023-03-26T12:21:30.703Z,979.61
2023-03-26T12:22:30.718Z,979.58
2023-03-26T12:23:30.705Z,979.56
2023-03-26T12:24:30.718Z,979.56
2023-03-26T12:25:30.689Z,979.46
2023-03-26T12:26:30.682Z,979.47
2023-03-26T12:27:30.688Z,979.47
2023-03-26T12:28:30.662Z,979.41